createdAt,value
2023-04-19T00:00:48.001Z,28.25
2023-04-19T00:03:16.092Z,19.85
2023-04-19T00:05:50.900Z,15.35
2023-04-19T00:08:26.239Z,16.25
2023-04-19T00:10:55.793Z,21.83
2023-04-19T00:13:22.819Z,14.82
2023-04-19T00:15:49.745Z,18.25
2023-04-19T00:18:16.672Z,18.52
2023-04-19T00:20:43.853Z,26.63
2023-04-19T00:23:10.791Z,13.52
2023-04-19T00:25:37.938Z,19.48
2023-04-19T00:28:05.331Z,17.63
2023-04-19T00:30:33.595Z,18.33
2023-04-19T00:33:00.908Z,18.23
2023-04-19T00:35:27.891Z,16.60
2023-04-19T00:37:54.838Z,25.08
2023-04-19T00:40:21.798Z,22.80
2023-04-19T00:42:48.686Z,16.15
2023-04-19T00:45:15.668Z,27.95
2023-04-19T00:47:42.746Z,19.10
2023-04-19T00:50:10.134Z,21.20
2023-04-19T00:52:37.364Z,22.85
2023-04-19T00:55:04.832Z,23.40
2023-04-19T00:57:31.770Z,17.27
2023-04-19T00:59:59.010Z,19.92
2023-04-19T01:02:26.145Z,18.83
2023-04-19T01:04:53.166Z,23.98
2023-04-19T01:07:20.075Z,17.05
2023-04-19T01:09:47.078Z,17.23
2023-04-19T01:12:14.022Z,18.00
2023-04-19T01:14:41.114Z,23.02
2023-04-19T01:17:08.795Z,22.30
2023-04-19T01:19:36.579Z,18.30
2023-04-19T01:22:04.430Z,15.95
2023-04-19T01:24:31.914Z,14.27
2023-04-19T01:26:58.849Z,12.82
2023-04-19T01:29:25.851Z,21.33
2023-04-19T01:31:54.102Z,20.75
2023-04-19T01:34:21.525Z,17.38
2023-04-19T01:36:48.461Z,17.92
2023-04-19T01:39:15.599Z,19.27
2023-04-19T01:41:42.629Z,20.95
2023-04-19T01:44:09.501Z,21.67
2023-04-19T01:46:38.945Z,25.80
2023-04-19T01:49:06.063Z,19.10
2023-04-19T01:51:35.218Z,17.95
2023-04-19T01:54:02.913Z,18.33
2023-04-19T01:56:30.196Z,19.90
2023-04-19T01:58:57.249Z,18.48
2023-04-19T02:01:30.681Z,25.10
2023-04-19T02:03:57.896Z,20.48
2023-04-19T02:06:24.905Z,18.40
2023-04-19T02:08:51.793Z,17.67
2023-04-19T02:11:18.822Z,15.93
2023-04-19T02:13:45.735Z,12.93
2023-04-19T02:16:12.912Z,16.75
2023-04-19T02:18:40.684Z,18.92
2023-04-19T02:21:11.167Z,20.23
2023-04-19T02:23:38.155Z,32.22
2023-04-19T02:26:05.456Z,15.80
2023-04-19T02:28:32.451Z,22.00
2023-04-19T02:30:59.561Z,27.55
2023-04-19T02:33:30.033Z,23.05
2023-04-19T02:35:56.936Z,19.05
2023-04-19T02:38:26.496Z,26.50
2023-04-19T02:40:53.398Z,24.42
2023-04-19T02:43:20.353Z,25.27
2023-04-19T02:45:47.375Z,23.42
2023-04-19T02:48:14.301Z,20.63
2023-04-19T02:50:41.227Z,20.77
2023-04-19T02:53:08.097Z,21.15
2023-04-19T02:55:35.103Z,26.15
2023-04-19T02:58:02.094Z,26.63
2023-04-19T03:00:29.079Z,27.17
2023-04-19T03:02:56.912Z,22.50
2023-04-19T03:05:24.062Z,23.45
2023-04-19T03:07:52.129Z,22.98
2023-04-19T03:10:19.328Z,17.65
2023-04-19T03:12:51.336Z,20.65
2023-04-19T03:15:19.190Z,22.92
2023-04-19T03:17:46.309Z,21.85
2023-04-19T03:20:13.343Z,23.02
2023-04-19T03:22:40.226Z,18.17
2023-04-19T03:25:09.557Z,16.85
2023-04-19T03:27:36.885Z,21.33
2023-04-19T03:30:04.176Z,26.35
2023-04-19T03:32:31.991Z,28.63
2023-04-19T03:34:59.021Z,18.23
2023-04-19T03:37:25.934Z,21.55
2023-04-19T03:39:52.887Z,22.73
2023-04-19T03:42:19.791Z,23.80
2023-04-19T03:44:46.773Z,21.75
2023-04-19T03:47:13.632Z,25.17
2023-04-19T03:49:40.490Z,25.90
2023-04-19T03:52:07.354Z,25.73
2023-04-19T03:54:34.197Z,24.20
2023-04-19T03:57:02.390Z,21.02
2023-04-19T03:59:29.306Z,29.10
2023-04-19T04:01:59.063Z,26.20
2023-04-19T04:04:26.238Z,22.58
2023-04-19T04:06:53.245Z,24.45
2023-04-19T04:09:20.079Z,21.58
2023-04-19T04:11:47.060Z,23.40
2023-04-19T04:14:14.377Z,23.35
2023-04-19T04:16:44.109Z,27.17
2023-04-19T04:19:11.047Z,31.88
2023-04-19T04:21:37.947Z,26.95
2023-04-19T04:24:05.419Z,26.42
2023-04-19T04:26:34.048Z,30.40
2023-04-19T04:29:04.276Z,26.02
2023-04-19T04:31:32.040Z,27.75
2023-04-19T04:33:58.993Z,22.33
2023-04-19T04:36:26.333Z,30.42
2023-04-19T04:38:53.228Z,25.35
2023-04-19T04:41:22.654Z,29.30
2023-04-19T04:44:04.662Z,22.95
2023-04-19T04:46:38.231Z,27.35
2023-04-19T04:49:05.295Z,31.73
2023-04-19T04:51:32.609Z,27.42
2023-04-19T04:53:59.463Z,30.15
2023-04-19T04:56:26.694Z,28.73
2023-04-19T04:58:53.689Z,24.25
2023-04-19T05:01:21.652Z,30.23
2023-04-19T05:03:48.567Z,24.08
2023-04-19T05:06:15.535Z,28.02
2023-04-19T05:08:42.415Z,29.58
2023-04-19T05:11:09.391Z,28.50
2023-04-19T05:13:36.430Z,29.92
2023-04-19T05:16:03.461Z,26.00
2023-04-19T05:18:30.470Z,26.77
2023-04-19T05:21:00.832Z,28.73
2023-04-19T05:23:27.734Z,28.02
2023-04-19T05:25:54.729Z,28.83
2023-04-19T05:28:24.289Z,26.55
2023-04-19T05:30:52.212Z,30.15
2023-04-19T05:33:19.253Z,26.95
2023-04-19T05:35:46.601Z,23.40
2023-04-19T05:38:18.938Z,26.45
2023-04-19T05:40:51.856Z,26.85
2023-04-19T05:43:20.053Z,26.38
2023-04-19T05:45:57.737Z,24.38
2023-04-19T05:48:27.246Z,25.83
2023-04-19T05:50:57.028Z,31.08
2023-04-19T05:53:24.049Z,32.53
2023-04-19T05:55:52.332Z,21.58
2023-04-19T05:58:19.352Z,22.83
2023-04-19T06:00:46.502Z,22.23
2023-04-19T06:03:14.206Z,23.98
2023-04-19T06:05:41.568Z,23.10
2023-04-19T06:08:09.571Z,26.27
2023-04-19T06:10:51.807Z,23.27
2023-04-19T06:13:20.100Z,25.38
2023-04-19T06:15:47.702Z,23.85
2023-04-19T06:18:19.317Z,29.73
2023-04-19T06:20:47.206Z,21.00
2023-04-19T06:23:15.118Z,27.83
2023-04-19T06:25:42.205Z,19.10
2023-04-19T06:28:09.076Z,22.90
2023-04-19T06:30:36.342Z,31.95
2023-04-19T06:33:03.336Z,20.77
2023-04-19T06:35:33.458Z,21.35
2023-04-19T06:38:10.317Z,22.90
2023-04-19T06:40:37.255Z,23.85
2023-04-19T06:43:05.810Z,19.40
2023-04-19T06:45:40.214Z,20.15
2023-04-19T06:48:07.272Z,21.73
2023-04-19T06:50:34.232Z,20.88
2023-04-19T06:53:04.593Z,21.42
2023-04-19T06:55:35.005Z,24.10
2023-04-19T06:58:01.993Z,21.75
2023-04-19T07:00:29.092Z,25.45
2023-04-19T07:02:56.302Z,22.38
2023-04-19T07:05:23.299Z,19.35
2023-04-19T07:07:50.162Z,24.60
2023-04-19T07:10:29.588Z,21.75
2023-04-19T07:16:46.867Z,20.83
2023-04-19T07:22:06.792Z,27.27
2023-04-19T07:24:39.362Z,22.50
2023-04-19T07:27:25.443Z,18.40
2023-04-19T07:30:44.594Z,23.05
2023-04-19T07:33:17.926Z,23.17
2023-04-19T07:35:50.350Z,23.85
2023-04-19T07:38:20.803Z,22.50
2023-04-19T07:44:13.524Z,19.98
2023-04-19T07:50:29.783Z,21.27
2023-04-19T07:57:03.707Z,23.05
2023-04-19T08:03:44.464Z,18.75
2023-04-19T08:10:49.956Z,24.35
2023-04-19T08:13:32.368Z,21.08
2023-04-19T08:17:18.495Z,20.67
2023-04-19T08:20:24.127Z,18.35
2023-04-19T08:23:21.387Z,17.77
2023-04-19T08:26:23.274Z,33.97
2023-04-19T08:29:44.900Z,25.33
2023-04-19T08:36:05.584Z,20.33
2023-04-19T08:38:32.892Z,19.95
2023-04-19T08:41:00.009Z,19.08
2023-04-19T08:43:36.378Z,24.65
2023-04-19T08:49:44.780Z,19.25
2023-04-19T08:52:13.368Z,22.85
2023-04-19T08:54:40.423Z,20.73
2023-04-19T08:57:08.796Z,16.40
2023-04-19T08:59:35.982Z,17.35
2023-04-19T09:02:03.240Z,25.77
2023-04-19T09:04:36.886Z,19.67
2023-04-19T09:07:08.519Z,18.52
2023-04-19T09:09:45.666Z,18.60
2023-04-19T09:12:19.198Z,31.83
2023-04-19T09:15:01.124Z,16.25
2023-04-19T09:17:29.551Z,17.70
2023-04-19T09:19:56.676Z,21.85
2023-04-19T09:22:23.691Z,20.58
2023-04-19T09:27:29.012Z,19.83
2023-04-19T09:29:56.913Z,19.50
2023-04-19T09:32:24.243Z,18.17
2023-04-19T09:34:53.134Z,16.15
2023-04-19T09:37:33.033Z,18.33
2023-04-19T09:40:26.025Z,21.17
2023-04-19T09:48:07.975Z,16.08
2023-04-19T09:50:46.265Z,16.55
2023-04-19T09:53:21.454Z,15.90
2023-04-19T09:55:57.678Z,20.08
2023-04-19T09:58:34.433Z,19.60
2023-04-19T10:01:14.279Z,16.30
2023-04-19T10:14:19.319Z,17.13
2023-04-19T10:16:52.992Z,17.70
2023-04-19T10:19:23.373Z,15.38
2023-04-19T10:25:47.128Z,16.27
2023-04-19T10:32:17.787Z,15.80
2023-04-19T10:42:32.870Z,14.18
2023-04-19T10:45:36.711Z,19.88
2023-04-19T10:48:07.308Z,13.48
2023-04-19T10:51:16.831Z,13.75
2023-04-19T10:54:07.674Z,15.27
2023-04-19T10:56:41.953Z,15.95
2023-04-19T10:59:26.831Z,14.30
2023-04-19T11:02:09.812Z,14.35
2023-04-19T11:04:44.417Z,13.95
2023-04-19T11:07:11.616Z,11.73
2023-04-19T11:13:06.986Z,11.15
2023-04-19T11:20:03.055Z,12.98
2023-04-19T11:23:16.384Z,22.10
2023-04-19T11:33:27.190Z,13.40
2023-04-19T11:36:15.598Z,11.68
2023-04-19T11:39:05.965Z,12.18
2023-04-19T11:46:32.467Z,17.48
2023-04-19T11:48:57.857Z,14.15
2023-04-19T11:51:26.700Z,7.78
2023-04-19T11:53:57.602Z,9.93
2023-04-19T11:56:25.022Z,9.82
2023-04-19T12:02:43.292Z,9.00
2023-04-19T12:05:58.935Z,10.32
2023-04-19T12:09:12.719Z,8.25
2023-04-19T12:12:18.423Z,9.32
2023-04-19T12:14:41.930Z,7.97
2023-04-19T12:17:12.370Z,11.77
2023-04-19T12:19:48.693Z,9.90
2023-04-19T12:22:35.306Z,9.90
2023-04-19T12:25:11.898Z,10.75
2023-04-19T12:27:41.284Z,8.65
2023-04-19T12:30:23.229Z,7.15
2023-04-19T12:32:57.446Z,10.10
2023-04-19T12:35:27.867Z,11.10
2023-04-19T12:38:00.564Z,5.13
2023-04-19T12:40:32.068Z,5.43
2023-04-19T12:42:59.311Z,7.70
2023-04-19T12:45:35.882Z,7.80
2023-04-19T12:48:09.335Z,9.77
2023-04-19T12:50:36.427Z,6.50
2023-04-19T12:53:03.433Z,6.00
2023-04-19T12:55:36.147Z,6.78
2023-04-19T12:58:03.477Z,8.48
2023-04-19T13:00:33.389Z,5.55
2023-04-19T13:03:04.035Z,5.75
2023-04-19T13:05:33.690Z,6.40
2023-04-19T13:12:10.923Z,8.32
2023-04-19T13:14:40.174Z,9.10
2023-04-19T13:17:11.231Z,5.55
2023-04-19T13:19:38.365Z,4.88
2023-04-19T13:22:10.870Z,7.50
2023-04-19T13:24:38.059Z,3.00
2023-04-19T13:27:09.449Z,4.70
2023-04-19T13:29:37.124Z,5.93
2023-04-19T13:32:27.245Z,4.60
2023-04-19T13:35:59.651Z,4.30
2023-04-19T13:38:41.489Z,5.10
2023-04-19T13:42:10.976Z,6.97
2023-04-19T13:45:17.891Z,7.03
2023-04-19T13:47:45.963Z,5.85
2023-04-19T13:50:34.069Z,5.78
2023-04-19T13:53:09.050Z,7.82
2023-04-19T13:59:25.704Z,8.05
2023-04-19T14:02:35.475Z,6.88
2023-04-19T14:05:03.958Z,7.75
2023-04-19T14:07:34.469Z,14.10
2023-04-19T14:10:29.046Z,7.50
2023-04-19T14:17:03.293Z,6.35
2023-04-19T14:19:35.791Z,9.68
2023-04-19T14:22:19.890Z,5.63
2023-04-19T14:24:52.484Z,6.53
2023-04-19T14:27:28.508Z,10.98
2023-04-19T14:29:55.511Z,8.55
2023-04-19T14:32:27.049Z,8.15
2023-04-19T14:34:55.369Z,7.78
2023-04-19T14:37:23.470Z,7.22
2023-04-19T14:39:50.725Z,15.32
2023-04-19T14:42:22.550Z,7.55
2023-04-19T14:44:54.303Z,10.05
2023-04-19T14:47:21.644Z,14.25
2023-04-19T14:49:48.864Z,11.15
2023-04-19T14:52:16.093Z,10.50
2023-04-19T14:54:43.844Z,6.65
2023-04-19T14:57:12.359Z,9.32
2023-04-19T14:59:41.534Z,5.88
2023-04-19T15:02:13.210Z,14.95
2023-04-19T15:04:42.797Z,6.47
2023-04-19T15:07:12.800Z,9.85
2023-04-19T15:09:40.573Z,13.73
2023-04-19T15:12:07.454Z,10.40
2023-04-19T15:14:34.684Z,10.25
2023-04-19T15:17:04.663Z,7.55
2023-04-19T15:19:31.765Z,7.18
2023-04-19T15:21:58.664Z,11.57
2023-04-19T15:24:25.761Z,6.80
2023-04-19T15:26:52.926Z,4.95
2023-04-19T15:29:20.121Z,6.43
2023-04-19T15:31:50.589Z,13.68
2023-04-19T15:34:44.108Z,9.13
2023-04-19T15:37:13.029Z,12.48
2023-04-19T15:39:40.182Z,8.65
2023-04-19T15:42:17.014Z,7.68
2023-04-19T15:44:45.343Z,16.05
2023-04-19T15:51:25.997Z,8.23
2023-04-19T15:54:01.619Z,8.25
2023-04-19T15:56:30.023Z,6.88
2023-04-19T16:03:16.671Z,6.40
2023-04-19T16:05:47.380Z,2.45
2023-04-19T16:08:37.829Z,12.60
2023-04-19T16:11:11.292Z,7.07
2023-04-19T16:14:15.605Z,4.65
2023-04-19T16:19:23.137Z,7.95
2023-04-19T16:22:07.210Z,5.25
2023-04-19T16:25:40.989Z,6.93
2023-04-19T16:33:01.396Z,6.80
2023-04-19T16:35:28.520Z,6.55
2023-04-19T16:37:57.794Z,2.88
2023-04-19T16:40:30.151Z,7.10
2023-04-19T16:43:00.475Z,3.85
2023-04-19T16:45:30.587Z,6.97
2023-04-19T16:48:00.275Z,4.18
2023-04-19T16:50:29.763Z,8.57
2023-04-19T16:52:56.743Z,5.82
2023-04-19T16:55:23.684Z,3.42
2023-04-19T16:57:54.731Z,4.40
2023-04-19T17:00:27.781Z,3.83
2023-04-19T17:02:58.081Z,4.22
2023-04-19T17:05:27.854Z,3.35
2023-04-19T17:07:57.354Z,6.32
2023-04-19T17:10:25.032Z,5.10
2023-04-19T17:12:57.174Z,6.50
2023-04-19T17:15:27.340Z,6.82
2023-04-19T17:17:54.503Z,7.90
2023-04-19T17:20:21.816Z,3.55
2023-04-19T17:22:52.019Z,2.78
2023-04-19T17:25:21.758Z,8.20
2023-04-19T17:27:49.538Z,4.68
2023-04-19T17:30:16.549Z,4.18
2023-04-19T17:35:34.798Z,2.90
2023-04-19T17:38:17.546Z,7.63
2023-04-19T17:40:55.368Z,6.40
2023-04-19T17:43:25.537Z,6.75
2023-04-19T17:45:55.240Z,2.72
2023-04-19T17:48:22.165Z,10.15
2023-04-19T17:50:49.457Z,3.75
2023-04-19T17:53:22.169Z,7.85
2023-04-19T17:55:51.825Z,8.98
2023-04-19T17:58:18.913Z,6.07
2023-04-19T18:00:46.660Z,3.97
2023-04-19T18:03:13.966Z,10.05
2023-04-19T18:05:41.314Z,8.75
2023-04-19T18:08:08.666Z,12.30
2023-04-19T18:10:35.947Z,7.32
2023-04-19T18:13:03.024Z,4.85
2023-04-19T18:15:29.990Z,5.10
2023-04-19T18:17:56.990Z,7.40
2023-04-19T18:20:24.053Z,7.30
2023-04-19T18:22:51.205Z,6.35
2023-04-19T18:25:18.866Z,7.63
2023-04-19T18:27:48.529Z,4.25
2023-04-19T18:30:15.550Z,5.07
2023-04-19T18:32:46.316Z,6.78
2023-04-19T18:35:14.812Z,4.65
2023-04-19T18:37:41.955Z,8.55
2023-04-19T18:40:09.498Z,4.70
2023-04-19T18:42:39.002Z,6.60
2023-04-19T18:45:06.710Z,10.77
2023-04-19T18:47:36.171Z,3.30
2023-04-19T18:50:12.362Z,10.90
2023-04-19T18:52:39.363Z,8.73
2023-04-19T18:55:09.845Z,8.77
2023-04-19T18:57:39.007Z,4.93
2023-04-19T19:00:13.293Z,3.08
2023-04-19T19:02:41.219Z,4.32
2023-04-19T19:05:13.915Z,6.68
2023-04-19T19:07:41.895Z,7.28
2023-04-19T19:10:18.258Z,4.57
2023-04-19T19:12:47.789Z,5.07
2023-04-19T19:15:15.972Z,4.03
2023-04-19T19:17:43.698Z,12.13
2023-04-19T19:20:11.300Z,10.77
2023-04-19T19:22:38.451Z,6.10
2023-04-19T19:25:06.034Z,13.52
2023-04-19T19:27:33.113Z,8.40
2023-04-19T19:30:01.105Z,3.28
2023-04-19T19:32:28.791Z,3.47
2023-04-19T19:35:02.093Z,4.90
2023-04-19T19:37:31.405Z,6.18
2023-04-19T19:40:03.713Z,3.90
2023-04-19T19:42:34.646Z,4.22
2023-04-19T19:45:05.126Z,4.43
2023-04-19T19:47:44.982Z,6.03
2023-04-19T19:52:48.166Z,7.40
2023-04-19T19:55:15.577Z,5.72
2023-04-19T20:00:41.938Z,10.48
2023-04-19T20:03:06.691Z,5.30
2023-04-19T20:05:37.253Z,2.58
2023-04-19T20:08:12.014Z,7.20
2023-04-19T20:10:40.498Z,7.60
2023-04-19T20:13:08.004Z,9.55
2023-04-19T20:15:35.980Z,3.65
2023-04-19T20:18:03.777Z,7.05
2023-04-19T20:20:31.084Z,3.60
2023-04-19T20:22:58.471Z,6.38
2023-04-19T20:25:25.600Z,1.83
2023-04-19T20:27:52.803Z,5.60
2023-04-19T20:30:19.890Z,3.60
2023-04-19T20:32:48.590Z,3.92
2023-04-19T20:35:16.062Z,4.10
2023-04-19T20:37:49.536Z,3.17
2023-04-19T20:40:19.183Z,1.27
2023-04-19T20:42:46.996Z,3.38
2023-04-19T20:45:14.555Z,2.15
2023-04-19T20:47:42.909Z,3.40
2023-04-19T20:50:11.289Z,2.55
2023-04-19T20:52:38.339Z,4.95
2023-04-19T20:55:05.889Z,5.68
2023-04-19T20:57:50.266Z,4.38
2023-04-19T21:00:56.902Z,13.40
2023-04-19T21:03:24.249Z,1.27
2023-04-19T21:05:51.800Z,9.77
2023-04-19T21:08:21.671Z,2.95
2023-04-19T21:10:52.459Z,4.40
2023-04-19T21:13:19.500Z,4.07
2023-04-19T21:15:59.024Z,2.33
2023-04-19T21:18:33.569Z,8.93
2023-04-19T21:21:09.625Z,4.05
2023-04-19T21:23:37.824Z,7.65
2023-04-19T21:26:08.148Z,3.70
2023-04-19T21:28:35.222Z,4.75
2023-04-19T21:31:11.291Z,3.72
2023-04-19T21:33:45.936Z,3.22
2023-04-19T21:36:22.625Z,5.63
2023-04-19T21:38:57.196Z,6.30
2023-04-19T21:41:24.527Z,1.77
2023-04-19T21:43:53.420Z,2.85
2023-04-19T21:46:20.454Z,8.50
2023-04-19T21:48:49.956Z,7.93
2023-04-19T21:51:17.454Z,4.28
2023-04-19T21:53:44.478Z,3.63
2023-04-19T21:56:11.802Z,11.90
2023-04-19T21:58:38.712Z,5.30
2023-04-19T22:01:06.245Z,3.30
2023-04-19T22:03:43.376Z,1.42
2023-04-19T22:06:17.988Z,5.95
2023-04-19T22:08:45.245Z,6.85
2023-04-19T22:11:12.314Z,4.53
2023-04-19T22:13:44.808Z,10.35
2023-04-19T22:16:15.303Z,1.95
2023-04-19T22:18:42.527Z,4.57
2023-04-19T22:21:12.804Z,5.97
2023-04-19T22:23:39.936Z,7.78
2023-04-19T22:26:07.324Z,1.80
2023-04-19T22:28:36.115Z,6.25
2023-04-19T22:31:03.214Z,4.03
2023-04-19T22:33:30.283Z,4.72
2023-04-19T22:35:57.834Z,2.95
2023-04-19T22:38:24.826Z,5.60
2023-04-19T22:40:51.778Z,4.03
2023-04-19T22:43:18.864Z,3.85
2023-04-19T22:45:48.078Z,7.18
2023-04-19T22:48:15.208Z,5.63
2023-04-19T22:50:42.115Z,6.80
2023-04-19T22:53:09.837Z,3.80
2023-04-19T22:55:37.084Z,8.07
2023-04-19T22:58:04.920Z,6.05
2023-04-19T23:00:31.949Z,5.68
2023-04-19T23:02:59.040Z,8.25
2023-04-19T23:05:27.174Z,5.00
2023-04-19T23:07:57.392Z,1.30
2023-04-19T23:10:26.106Z,3.25
2023-04-19T23:12:57.333Z,11.75
2023-04-19T23:15:24.814Z,1.85
2023-04-19T23:17:52.757Z,2.25
2023-04-19T23:20:19.877Z,4.07
2023-04-19T23:22:46.732Z,3.65
2023-04-19T23:25:13.796Z,5.20
2023-04-19T23:27:43.315Z,5.57
2023-04-19T23:30:10.600Z,6.35
2023-04-19T23:32:40.019Z,6.43
2023-04-19T23:35:07.536Z,4.82
2023-04-19T23:37:34.816Z,4.82
2023-04-19T23:40:06.221Z,3.55
2023-04-19T23:42:35.845Z,4.30
2023-04-19T23:45:05.657Z,6.95
2023-04-19T23:47:32.618Z,5.82
2023-04-19T23:49:59.634Z,3.60
2023-04-19T23:52:27.641Z,10.40
2023-04-19T23:54:54.598Z,3.55
2023-04-19T23:57:38.004Z,6.63
